createdAt,value
2022-12-19T00:01:27.777Z,97013.69
2022-12-19T00:03:27.909Z,97006.00
2022-12-19T00:05:26.255Z,97015.47
2022-12-19T00:07:24.455Z,97013.03
2022-12-19T00:09:22.731Z,97011.28
2022-12-19T00:11:23.690Z,97016.47
2022-12-19T00:13:21.773Z,97015.47
2022-12-19T00:15:20.015Z,97014.66
2022-12-19T00:17:19.610Z,97017.28
2022-12-19T00:19:18.078Z,97025.00
2022-12-19T00:21:17.936Z,97018.13
2022-12-19T00:23:16.092Z,97017.28
2022-12-19T00:25:14.399Z,97025.09
2022-12-19T00:27:12.703Z,97025.19
2022-12-19T00:29:14.375Z,97030.22
2022-12-19T00:31:16.916Z,97025.00
2022-12-19T00:33:16.508Z,97024.16
2022-12-19T00:35:15.265Z,97024.19
2022-12-19T00:37:13.552Z,97026.06
2022-12-19T00:39:11.922Z,97035.59
2022-12-19T00:41:11.997Z,97028.69
2022-12-19T00:43:10.163Z,97030.47
2022-12-19T00:45:08.928Z,97033.13
2022-12-19T00:47:07.131Z,97034.66
2022-12-19T00:49:07.335Z,97035.47
2022-12-19T00:51:07.574Z,97039.00
2022-12-19T00:53:05.713Z,97035.56
2022-12-19T00:55:08.197Z,97035.56
2022-12-19T00:57:17.167Z,97033.78
2022-12-19T00:59:15.379Z,97032.06
2022-12-19T01:01:19.377Z,97033.78
2022-12-19T01:03:17.642Z,97037.22
2022-12-19T01:05:17.520Z,97041.44
2022-12-19T01:07:15.591Z,97047.44
2022-12-19T01:09:14.218Z,97033.00
2022-12-19T01:11:13.532Z,97039.81
2022-12-19T01:13:10.663Z,97038.91
2022-12-19T01:15:09.649Z,97035.47
2022-12-19T01:17:07.928Z,97041.56
2022-12-19T01:19:06.074Z,97041.56
2022-12-19T01:21:09.438Z,97051.94
2022-12-19T01:23:07.840Z,97041.69
2022-12-19T01:25:07.334Z,97045.94
2022-12-19T01:27:05.681Z,97045.94
2022-12-19T01:29:03.894Z,97051.22
2022-12-19T01:31:02.176Z,97057.31
2022-12-19T01:33:01.872Z,97054.84
2022-12-19T01:34:58.930Z,97054.81
2022-12-19T01:36:58.638Z,97046.97
2022-12-19T01:38:57.102Z,97051.31
2022-12-19T01:40:57.283Z,97044.31
2022-12-19T01:42:55.443Z,97048.56
2022-12-19T01:45:27.774Z,97046.91
2022-12-19T01:47:33.231Z,97044.28
2022-12-19T01:49:34.312Z,97047.72
2022-12-19T01:51:38.706Z,97039.91
2022-12-19T01:53:48.885Z,97036.25
2022-12-19T01:55:48.214Z,97036.25
2022-12-19T01:57:46.504Z,97042.44
2022-12-19T01:59:47.308Z,97040.72
2022-12-19T02:01:51.802Z,97032.09
2022-12-19T02:03:55.458Z,97033.94
2022-12-19T02:05:54.895Z,97037.41
2022-12-19T02:07:54.298Z,97035.63
2022-12-19T02:09:57.531Z,97040.78
2022-12-19T02:12:05.446Z,97041.63
2022-12-19T02:14:07.958Z,97032.88
2022-12-19T02:16:16.049Z,97029.50
2022-12-19T02:18:25.692Z,97026.94
2022-12-19T02:21:04.355Z,97028.59
2022-12-19T02:23:24.949Z,97028.69
2022-12-19T02:25:51.999Z,97038.22
2022-12-19T02:28:34.238Z,97034.91
2022-12-19T02:30:47.581Z,97051.25
2022-12-19T02:33:02.053Z,97048.72
2022-12-19T02:35:11.187Z,97057.44
2022-12-19T02:37:18.977Z,97054.78
2022-12-19T02:39:26.296Z,97053.75
2022-12-19T02:41:30.686Z,97050.31
2022-12-19T02:43:33.862Z,97053.81
2022-12-19T02:45:37.275Z,97058.97
2022-12-19T02:47:37.916Z,97051.25
2022-12-19T02:49:38.682Z,97043.41
2022-12-19T02:51:37.715Z,97040.88
2022-12-19T02:53:38.475Z,97045.28
2022-12-19T02:55:43.655Z,97034.09
2022-12-19T02:57:54.692Z,97037.56
2022-12-19T03:00:04.012Z,97041.94
2022-12-19T03:02:12.003Z,97037.69
2022-12-19T03:04:21.123Z,97028.38
2022-12-19T03:06:27.122Z,97022.41
2022-12-19T03:08:29.757Z,97027.50
2022-12-19T03:10:37.521Z,97025.75
2022-12-19T03:12:40.620Z,97025.72
2022-12-19T03:14:39.033Z,97030.06
2022-12-19T03:16:38.452Z,97034.50
2022-12-19T03:18:37.145Z,97030.16
2022-12-19T03:20:45.520Z,97025.03
2022-12-19T03:22:43.865Z,97032.91
2022-12-19T03:24:43.307Z,97034.63
2022-12-19T03:26:48.318Z,97044.13
2022-12-19T03:28:50.879Z,97037.28
2022-12-19T03:30:50.167Z,97045.16
2022-12-19T03:32:50.264Z,97052.03
2022-12-19T03:34:51.846Z,97055.53
2022-12-19T03:36:56.416Z,97054.75
2022-12-19T03:38:55.986Z,97064.19
2022-12-19T03:40:55.865Z,97064.16
2022-12-19T03:43:08.960Z,97064.16
2022-12-19T03:45:07.727Z,97052.91
2022-12-19T03:47:12.638Z,97055.50
2022-12-19T03:49:10.943Z,97059.00
2022-12-19T03:51:16.967Z,97046.88
2022-12-19T03:53:30.179Z,97065.84
2022-12-19T03:55:37.236Z,97064.91
2022-12-19T03:57:42.810Z,97071.81
2022-12-19T03:59:45.927Z,97070.13
2022-12-19T04:01:45.991Z,97080.41
2022-12-19T04:03:44.741Z,97076.09
2022-12-19T04:05:44.488Z,97081.28
2022-12-19T04:07:43.747Z,97086.50
2022-12-19T04:09:46.021Z,97088.25
2022-12-19T04:11:52.685Z,97092.50
2022-12-19T04:13:57.107Z,97082.09
2022-12-19T04:16:01.226Z,97096.75
2022-12-19T04:18:01.840Z,97087.25
2022-12-19T04:20:04.745Z,97099.41
2022-12-19T04:22:10.875Z,97097.78
2022-12-19T04:24:13.947Z,97098.56
2022-12-19T04:26:15.525Z,97103.69
2022-12-19T04:28:20.088Z,97106.22
2022-12-19T04:30:19.109Z,97104.56
2022-12-19T04:32:17.512Z,97094.22
2022-12-19T04:34:20.014Z,97100.22
2022-12-19T04:36:18.325Z,97090.75
2022-12-19T04:38:16.676Z,97088.13
2022-12-19T04:40:15.539Z,97088.97
2022-12-19T04:42:15.220Z,97091.50
2022-12-19T04:44:13.374Z,97092.44
2022-12-19T04:46:11.658Z,97095.91
2022-12-19T04:48:10.009Z,97095.03
2022-12-19T04:50:08.727Z,97100.31
2022-12-19T04:52:05.989Z,97109.00
2022-12-19T04:54:06.361Z,97106.50
2022-12-19T04:56:05.924Z,97107.28
2022-12-19T04:58:06.785Z,97112.41
2022-12-19T05:00:08.528Z,97110.72
2022-12-19T05:02:10.159Z,97109.81
2022-12-19T05:04:08.506Z,97114.13
2022-12-19T05:06:08.536Z,97112.41
2022-12-19T05:08:07.806Z,97112.44
2022-12-19T05:10:08.396Z,97106.50
2022-12-19T05:12:06.943Z,97105.63
2022-12-19T05:14:06.784Z,97101.41
2022-12-19T05:16:07.498Z,97105.75
2022-12-19T05:18:06.013Z,97103.13
2022-12-19T05:20:04.511Z,97109.94
2022-12-19T05:22:02.760Z,97113.47
2022-12-19T05:24:01.993Z,97117.84
2022-12-19T05:26:01.458Z,97119.59
2022-12-19T05:27:59.527Z,97114.41
2022-12-19T05:29:59.329Z,97116.09
2022-12-19T05:32:06.502Z,97114.41
2022-12-19T05:34:04.761Z,97126.44
2022-12-19T05:36:03.457Z,97123.78
2022-12-19T05:38:01.645Z,97122.13
2022-12-19T05:39:59.938Z,97135.88
2022-12-19T05:41:58.117Z,97121.28
2022-12-19T05:43:57.832Z,97131.63
2022-12-19T05:45:57.538Z,97120.44
2022-12-19T05:47:59.980Z,97111.03
2022-12-19T05:49:59.544Z,97121.28
2022-12-19T05:51:57.765Z,97111.88
2022-12-19T05:53:56.117Z,97115.28
2022-12-19T05:55:54.960Z,97118.72
2022-12-19T05:57:53.307Z,97126.47
2022-12-19T05:59:51.518Z,97126.50
2022-12-19T06:01:51.183Z,97123.97
2022-12-19T06:03:50.410Z,97126.50
2022-12-19T06:05:48.649Z,97122.91
2022-12-19T06:07:46.834Z,97128.97
2022-12-19T06:09:45.189Z,97128.88
2022-12-19T06:11:43.359Z,97121.16
2022-12-19T06:13:42.237Z,97129.75
2022-12-19T06:15:40.633Z,97127.09
2022-12-19T06:17:40.187Z,97134.00
2022-12-19T06:19:38.490Z,97139.19
2022-12-19T06:21:42.275Z,97134.81
2022-12-19T06:23:44.836Z,97137.34
2022-12-19T06:25:43.057Z,97145.91
2022-12-19T06:27:41.312Z,97144.97
2022-12-19T06:29:39.667Z,97146.66
2022-12-19T06:31:38.287Z,97147.44
2022-12-19T06:33:37.910Z,97144.75
2022-12-19T06:35:37.270Z,97149.09
2022-12-19T06:40:07.748Z,97147.31
2022-12-19T06:42:23.180Z,97151.47
2022-12-19T06:44:21.402Z,97151.34
2022-12-19T06:46:19.772Z,97154.09
2022-12-19T06:48:18.032Z,97149.66
2022-12-19T06:50:17.903Z,97157.47
2022-12-19T06:52:16.541Z,97155.75
2022-12-19T06:54:15.952Z,97166.81
2022-12-19T06:56:16.585Z,97174.59
2022-12-19T06:58:14.840Z,97174.41
2022-12-19T07:00:14.444Z,97170.09
2022-12-19T07:02:26.354Z,97175.13
2022-12-19T07:04:30.740Z,97180.28
2022-12-19T07:06:31.097Z,97179.41
2022-12-19T07:08:29.626Z,97173.47
2022-12-19T07:10:28.179Z,97186.41
2022-12-19T07:12:26.419Z,97187.25
2022-12-19T07:14:24.986Z,97193.22
2022-12-19T07:16:24.047Z,97190.59
2022-12-19T07:18:22.318Z,97186.34
2022-12-19T07:20:22.403Z,97189.75
2022-12-19T07:22:22.236Z,97188.22
2022-12-19T07:24:20.453Z,97194.31
2022-12-19T07:26:18.961Z,97190.06
2022-12-19T07:28:18.056Z,97192.69
2022-12-19T07:30:16.291Z,97190.97
2022-12-19T07:32:14.755Z,97195.06
2022-12-19T07:34:12.968Z,97196.59
2022-12-19T07:36:11.525Z,97201.66
2022-12-19T07:38:11.078Z,97199.88
2022-12-19T07:40:15.290Z,97201.59
2022-12-19T07:42:13.470Z,97206.78
2022-12-19T07:44:13.313Z,97218.72
2022-12-19T07:46:11.667Z,97222.94
2022-12-19T07:48:10.142Z,97222.91
2022-12-19T07:50:08.742Z,97229.88
2022-12-19T07:52:07.060Z,97227.31
2022-12-19T07:54:09.643Z,97225.75
2022-12-19T07:56:08.927Z,97224.91
2022-12-19T07:58:09.550Z,97235.19
2022-12-19T08:00:09.024Z,97239.41
2022-12-19T08:02:10.685Z,97235.00
2022-12-19T08:04:10.005Z,97243.72
2022-12-19T08:06:09.139Z,97242.88
2022-12-19T08:08:08.857Z,97241.03
2022-12-19T08:10:11.429Z,97241.09
2022-12-19T08:12:10.477Z,97240.38
2022-12-19T08:14:08.771Z,97237.75
2022-12-19T08:16:07.828Z,97247.19
2022-12-19T08:18:06.153Z,97240.41
2022-12-19T08:20:04.809Z,97251.56
2022-12-19T08:22:03.335Z,97254.97
2022-12-19T08:24:01.849Z,97252.34
2022-12-19T08:26:03.931Z,97247.66
2022-12-19T08:28:02.065Z,97249.38
2022-12-19T08:30:00.401Z,97246.69
2022-12-19T08:31:58.680Z,97243.91
2022-12-19T08:33:58.185Z,97243.72
2022-12-19T08:35:56.428Z,97248.91
2022-12-19T08:37:54.792Z,97244.81
2022-12-19T08:39:53.199Z,97253.34
2022-12-19T08:41:52.743Z,97247.34
2022-12-19T08:43:52.526Z,97250.84
2022-12-19T08:45:51.031Z,97249.88
2022-12-19T08:47:49.377Z,97244.69
2022-12-19T08:49:47.720Z,97231.66
2022-12-19T08:51:45.982Z,97243.00
2022-12-19T08:53:46.363Z,97227.34
2022-12-19T08:55:44.617Z,97226.31
2022-12-19T08:57:44.345Z,97222.88
2022-12-19T08:59:42.679Z,97225.41
2022-12-19T09:01:42.052Z,97233.25
2022-12-19T09:03:59.838Z,97218.66
2022-12-19T09:06:06.943Z,97218.66
2022-12-19T09:08:09.252Z,97227.06
2022-12-19T09:10:08.929Z,97221.66
2022-12-19T09:12:07.503Z,97207.66
2022-12-19T09:14:06.989Z,97203.97
2022-12-19T09:16:07.672Z,97207.41
2022-12-19T09:18:06.043Z,97201.44
2022-12-19T09:20:04.395Z,97192.81
2022-12-19T09:22:02.764Z,97205.78
2022-12-19T09:24:07.388Z,97192.88
2022-12-19T09:26:09.006Z,97180.03
2022-12-19T09:30:26.744Z,97176.50
2022-12-19T09:32:25.751Z,97185.22
2022-12-19T09:34:24.398Z,97169.72
2022-12-19T09:36:29.993Z,97164.53
2022-12-19T09:38:29.913Z,97169.50
2022-12-19T09:40:51.987Z,97158.94
2022-12-19T09:43:04.313Z,97167.47
2022-12-19T09:45:31.094Z,97162.03
2022-12-19T09:47:33.859Z,97162.72
2022-12-19T09:49:41.776Z,97160.91
2022-12-19T09:51:45.275Z,97159.09
2022-12-19T09:53:58.125Z,97153.81
2022-12-19T09:55:59.469Z,97156.41
2022-12-19T09:58:05.676Z,97151.09
2022-12-19T10:00:08.019Z,97153.59
2022-12-19T10:02:25.327Z,97151.28
2022-12-19T10:04:28.021Z,97148.63
2022-12-19T10:07:14.470Z,97144.75
2022-12-19T10:09:16.255Z,97154.75
2022-12-19T10:12:38.878Z,97139.13
2022-12-19T10:13:40.195Z,97140.50
2022-12-19T10:16:00.212Z,97138.34
2022-12-19T10:18:12.747Z,97133.63
2022-12-19T10:20:20.884Z,97124.53
2022-12-19T10:22:28.807Z,97120.59
2022-12-19T10:24:57.604Z,97118.13
2022-12-19T10:27:14.546Z,97111.16
2022-12-19T10:29:31.392Z,97096.81
2022-12-19T10:31:38.163Z,97102.38
2022-12-19T10:33:42.182Z,97097.09
2022-12-19T10:35:45.198Z,97097.88
2022-12-19T10:37:50.908Z,97101.44
2022-12-19T10:39:58.592Z,97105.38
2022-12-19T10:42:04.058Z,97094.91
2022-12-19T10:44:05.896Z,97086.81
2022-12-19T10:46:14.899Z,97079.34
2022-12-19T10:48:18.790Z,97087.53
2022-12-19T10:50:26.615Z,97081.38
2022-12-19T10:52:52.675Z,97079.94
2022-12-19T10:54:51.091Z,97090.81
2022-12-19T10:56:49.497Z,97084.84
2022-12-19T10:58:52.116Z,97086.59
2022-12-19T11:01:11.923Z,97079.59
2022-12-19T11:03:19.048Z,97076.91
2022-12-19T11:05:27.062Z,97076.00
2022-12-19T11:07:25.602Z,97076.84
2022-12-19T11:09:30.240Z,97089.06
2022-12-19T11:14:29.751Z,97079.47
2022-12-19T11:16:55.885Z,97081.66
2022-12-19T11:21:40.797Z,97073.09
2022-12-19T11:22:11.348Z,97077.25
2022-12-19T11:29:32.819Z,97067.38
2022-12-19T11:29:38.156Z,97072.34
2022-12-19T11:29:53.423Z,97076.91
2022-12-19T11:30:41.737Z,97082.06
2022-12-19T11:31:51.170Z,97067.13
2022-12-19T11:33:14.658Z,97079.34
2022-12-19T11:35:20.931Z,97082.59
2022-12-19T11:37:34.285Z,97074.00
2022-12-19T11:39:38.251Z,97073.81
2022-12-19T11:41:43.113Z,97069.44
2022-12-19T11:43:49.380Z,97064.34
2022-12-19T11:45:57.001Z,97073.75
2022-12-19T11:48:00.174Z,97059.91
2022-12-19T11:50:05.463Z,97071.34
2022-12-19T11:53:01.828Z,97064.59
2022-12-19T11:54:46.142Z,97068.31
2022-12-19T11:56:46.846Z,97064.00
2022-12-19T11:58:49.688Z,97064.81
2022-12-19T12:00:52.395Z,97062.09
2022-12-19T12:03:21.210Z,97058.28
2022-12-19T12:05:37.439Z,97054.66
2022-12-19T12:08:25.506Z,97055.69
2022-12-19T12:14:13.722Z,97066.28
2022-12-19T12:17:52.343Z,97062.56
2022-12-19T12:26:36.144Z,97075.56
2022-12-19T12:31:04.528Z,97066.03
2022-12-19T12:31:08.776Z,97072.72
2022-12-19T12:31:08.851Z,97055.41
2022-12-19T12:31:51.538Z,97063.41
2022-12-19T12:32:02.750Z,97063.19
2022-12-19T12:32:05.402Z,97062.16
2022-12-19T12:35:51.512Z,97061.03
2022-12-19T12:40:41.202Z,97070.91
2022-12-19T12:42:54.385Z,97082.88
2022-12-19T12:44:56.724Z,97070.72
2022-12-19T12:47:03.762Z,97062.84
2022-12-19T12:49:05.863Z,97067.34
2022-12-19T12:51:05.614Z,97072.38
2022-12-19T12:53:09.895Z,97070.78
2022-12-19T12:55:19.352Z,97062.06
2022-12-19T12:57:21.132Z,97055.13
2022-12-19T12:59:25.070Z,97058.38
2022-12-19T13:01:34.364Z,97064.34
2022-12-19T13:03:32.724Z,97057.22
2022-12-19T13:05:40.681Z,97052.13
2022-12-19T13:07:43.946Z,97065.97
2022-12-19T13:09:43.288Z,97075.50
2022-12-19T13:12:03.885Z,97076.34
2022-12-19T13:14:02.209Z,97060.88
2022-12-19T13:16:21.786Z,97066.88
2022-12-19T13:18:40.890Z,97064.13
2022-12-19T13:20:45.659Z,97067.00
2022-12-19T13:22:45.091Z,97070.50
2022-12-19T13:24:45.012Z,97077.31
2022-12-19T13:26:52.421Z,97084.22
2022-12-19T13:28:50.824Z,97088.56
2022-12-19T13:31:22.881Z,97084.34
2022-12-19T13:33:21.792Z,97089.53
2022-12-19T13:36:47.775Z,97090.50
2022-12-19T13:40:00.874Z,97091.41
2022-12-19T13:40:33.185Z,97087.13
2022-12-19T13:42:55.152Z,97099.47
2022-12-19T13:45:14.001Z,97098.66
2022-12-19T13:47:20.302Z,97096.88
2022-12-19T13:49:34.144Z,97099.56
2022-12-19T13:51:53.441Z,97095.31
2022-12-19T13:53:59.638Z,97095.38
2022-12-19T13:56:02.316Z,97101.50
2022-12-19T13:58:04.755Z,97098.06
2022-12-19T14:00:10.303Z,97100.66
2022-12-19T14:02:16.310Z,97105.84
2022-12-19T14:04:27.587Z,97105.78
2022-12-19T14:06:28.461Z,97099.69
2022-12-19T14:08:29.104Z,97094.50
2022-12-19T14:11:33.220Z,97097.06
2022-12-19T14:13:57.407Z,97098.84
2022-12-19T14:15:39.618Z,97098.97
2022-12-19T14:17:37.831Z,97109.28
2022-12-19T14:19:42.465Z,97105.78
2022-12-19T14:22:04.809Z,97104.25
2022-12-19T14:24:12.833Z,97111.28
2022-12-19T14:28:18.424Z,97117.34
2022-12-19T14:28:41.842Z,97114.75
2022-12-19T14:30:42.183Z,97098.34
2022-12-19T14:33:46.308Z,97104.44
2022-12-19T14:36:10.558Z,97114.00
2022-12-19T14:37:37.074Z,97110.56
2022-12-19T14:39:48.721Z,97099.41
2022-12-19T14:42:07.208Z,97106.41
2022-12-19T14:52:08.570Z,97099.56
2022-12-19T14:54:01.856Z,97098.72
2022-12-19T14:54:06.893Z,97095.25
2022-12-19T14:54:26.177Z,97094.56
2022-12-19T14:54:38.018Z,97084.25
2022-12-19T14:58:53.140Z,97089.63
2022-12-19T15:01:09.286Z,97087.94
2022-12-19T15:03:15.713Z,97075.84
2022-12-19T15:05:17.018Z,97079.34
2022-12-19T15:07:22.539Z,97070.72
2022-12-19T15:11:00.842Z,97075.91
2022-12-19T15:13:46.768Z,97078.56
2022-12-19T15:14:52.915Z,97080.25
2022-12-19T15:16:44.747Z,97079.41
2022-12-19T15:18:43.510Z,97082.84
2022-12-19T15:20:41.770Z,97081.16
2022-12-19T15:22:41.380Z,97090.69
2022-12-19T15:24:39.625Z,97093.34
2022-12-19T15:26:48.200Z,97096.94
2022-12-19T15:28:50.795Z,97096.22
2022-12-19T15:30:54.027Z,97099.78
2022-12-19T15:32:52.128Z,97101.63
2022-12-19T15:34:51.759Z,97083.47
2022-12-19T15:36:50.348Z,97092.16
2022-12-19T15:38:49.976Z,97096.44
2022-12-19T15:40:48.637Z,97108.59
2022-12-19T15:42:52.720Z,97098.34
2022-12-19T15:44:52.475Z,97101.84
2022-12-19T15:46:50.830Z,97100.09
2022-12-19T15:48:51.335Z,97108.72
2022-12-19T15:50:49.548Z,97102.69
2022-12-19T15:52:48.450Z,97100.16
2022-12-19T15:54:50.088Z,97100.16
2022-12-19T15:56:52.643Z,97099.31
2022-12-19T15:58:51.435Z,97104.56
2022-12-19T16:00:54.164Z,97114.13
2022-12-19T16:05:12.164Z,97096.06
2022-12-19T16:07:15.995Z,97104.75
2022-12-19T16:09:21.026Z,97105.63
2022-12-19T16:11:23.892Z,97106.59
2022-12-19T16:13:24.969Z,97106.66
2022-12-19T16:15:26.591Z,97107.53
2022-12-19T16:17:26.528Z,97116.22
2022-12-19T16:19:26.975Z,97111.09
2022-12-19T16:21:34.096Z,97115.44
2022-12-19T16:23:32.852Z,97111.13
2022-12-19T16:25:36.008Z,97113.78
2022-12-19T16:27:36.585Z,97116.38
2022-12-19T16:29:38.177Z,97113.78
2022-12-19T16:31:40.027Z,97121.56
2022-12-19T16:33:38.266Z,97124.19
2022-12-19T16:37:54.787Z,97129.38
2022-12-19T16:39:53.630Z,97121.66
2022-12-19T16:41:52.297Z,97117.31
2022-12-19T16:43:52.520Z,97125.13
2022-12-19T16:45:50.830Z,97123.34
2022-12-19T16:47:50.134Z,97134.50
2022-12-19T16:49:48.377Z,97124.16
2022-12-19T16:51:47.882Z,97124.25
2022-12-19T16:53:46.331Z,97118.13
2022-12-19T16:55:45.737Z,97131.97
2022-12-19T16:57:45.352Z,97119.00
2022-12-19T16:59:45.188Z,97132.81
2022-12-19T17:01:45.159Z,97129.38
2022-12-19T17:03:45.873Z,97128.53
2022-12-19T17:05:44.240Z,97128.53
2022-12-19T17:07:42.443Z,97123.38
2022-12-19T17:09:40.689Z,97130.31
2022-12-19T17:11:39.139Z,97125.13
2022-12-19T17:13:37.459Z,97134.56
2022-12-19T17:15:38.909Z,97132.00
2022-12-19T17:17:37.047Z,97117.31
2022-12-19T17:19:38.437Z,97121.66
2022-12-19T17:21:36.654Z,97131.19
2022-12-19T17:23:35.377Z,97128.59
2022-12-19T17:25:33.562Z,97131.19
2022-12-19T17:27:31.863Z,97132.00
2022-12-19T17:29:30.341Z,97127.69
2022-12-19T17:31:38.064Z,97132.81
2022-12-19T17:33:39.580Z,97130.22
2022-12-19T17:35:38.087Z,97133.66
2022-12-19T17:37:36.262Z,97137.16
2022-12-19T17:39:35.808Z,97137.97
2022-12-19T17:41:34.199Z,97139.69
2022-12-19T17:43:32.571Z,97140.59
2022-12-19T17:45:32.153Z,97128.47
2022-12-19T17:47:31.943Z,97124.13
2022-12-19T17:49:32.386Z,97123.25
2022-12-19T17:51:31.032Z,97125.84
2022-12-19T17:53:29.227Z,97125.78
2022-12-19T17:55:29.447Z,97120.66
2022-12-19T17:57:27.651Z,97117.22
2022-12-19T17:59:26.177Z,97128.47
2022-12-19T18:01:25.835Z,97129.38
2022-12-19T18:03:27.543Z,97120.75
2022-12-19T18:05:29.390Z,97122.44
2022-12-19T18:07:27.586Z,97124.13
2022-12-19T18:09:26.586Z,97129.28
2022-12-19T18:11:27.252Z,97126.72
2022-12-19T18:13:26.466Z,97125.84
2022-12-19T18:15:26.418Z,97138.78
2022-12-19T18:17:27.191Z,97136.25
2022-12-19T18:19:30.140Z,97124.19
2022-12-19T18:21:28.441Z,97140.59
2022-12-19T18:23:26.931Z,97132.00
2022-12-19T18:25:27.515Z,97141.53
2022-12-19T18:27:25.906Z,97144.97
2022-12-19T18:29:25.832Z,97141.44
2022-12-19T18:31:26.721Z,97144.88
2022-12-19T18:33:25.436Z,97137.94
2022-12-19T18:35:30.021Z,97132.75
2022-12-19T18:37:28.240Z,97137.09
2022-12-19T18:39:28.835Z,97131.94
2022-12-19T18:41:28.157Z,97148.38
2022-12-19T18:43:26.351Z,97137.19
2022-12-19T18:45:28.205Z,97143.19
2022-12-19T18:47:26.859Z,97137.97
2022-12-19T18:49:25.187Z,97148.38
2022-12-19T18:51:25.352Z,97138.88
2022-12-19T18:53:29.835Z,97142.34
2022-12-19T18:55:32.907Z,97150.97
2022-12-19T18:57:31.205Z,97142.44
2022-12-19T18:59:29.517Z,97154.50
2022-12-19T19:01:27.886Z,97158.88
2022-12-19T19:03:30.131Z,97150.25
2022-12-19T19:05:30.582Z,97163.22
2022-12-19T19:07:30.276Z,97168.44
2022-12-19T19:09:28.544Z,97166.78
2022-12-19T19:12:06.203Z,97164.09
2022-12-19T19:14:04.414Z,97164.09
2022-12-19T19:16:05.625Z,97156.31
2022-12-19T19:18:06.049Z,97162.44
2022-12-19T19:20:09.628Z,97164.19
2022-12-19T19:22:07.985Z,97168.47
2022-12-19T19:24:11.740Z,97167.59
2022-12-19T19:26:10.554Z,97166.78
2022-12-19T19:28:09.024Z,97171.16
2022-12-19T19:30:10.216Z,97171.22
2022-12-19T19:32:08.643Z,97166.03
2022-12-19T19:34:12.013Z,97157.41
2022-12-19T19:36:14.922Z,97166.88
2022-12-19T19:38:14.670Z,97166.03
2022-12-19T19:40:15.496Z,97172.09
2022-12-19T19:42:13.870Z,97172.19
2022-12-19T19:44:12.176Z,97187.78
2022-12-19T19:46:10.537Z,97180.00
2022-12-19T19:48:09.275Z,97177.41
2022-12-19T19:50:09.211Z,97193.84
2022-12-19T19:52:07.588Z,97178.31
2022-12-19T19:54:06.226Z,97181.75
2022-12-19T19:56:06.788Z,97184.34
2022-12-19T19:58:05.385Z,97182.63
2022-12-19T20:00:04.674Z,97180.94
2022-12-19T20:02:11.499Z,97183.53
2022-12-19T20:04:12.897Z,97186.13
2022-12-19T20:06:11.366Z,97180.09
2022-12-19T20:08:09.744Z,97184.38
2022-12-19T20:10:10.135Z,97180.03
2022-12-19T20:12:09.929Z,97181.75
2022-12-19T20:14:08.084Z,97185.25
2022-12-19T20:16:07.723Z,97168.91
2022-12-19T20:18:06.127Z,97187.06
2022-12-19T20:20:04.969Z,97177.59
2022-12-19T20:22:05.421Z,97178.53
2022-12-19T20:24:03.661Z,97176.91
2022-12-19T20:26:02.567Z,97176.97
2022-12-19T20:28:03.060Z,97170.91
2022-12-19T20:30:01.604Z,97172.69
2022-12-19T20:32:00.189Z,97166.59
2022-12-19T20:33:58.602Z,97171.84
2022-12-19T20:35:57.966Z,97165.84
2022-12-19T20:37:56.360Z,97166.78
2022-12-19T20:39:54.714Z,97171.16
2022-12-19T20:41:54.005Z,97176.38
2022-12-19T20:43:53.633Z,97167.00
2022-12-19T20:45:52.020Z,97163.56
2022-12-19T20:47:50.388Z,97168.75
2022-12-19T20:49:49.120Z,97174.84
2022-12-19T20:51:48.364Z,97174.00
2022-12-19T20:53:47.116Z,97175.75
2022-12-19T20:55:57.595Z,97181.84
2022-12-19T20:57:56.499Z,97171.53
2022-12-19T20:59:56.352Z,97168.91
2022-12-19T21:01:56.375Z,97168.91
2022-12-19T21:03:54.834Z,97175.88
2022-12-19T21:05:54.252Z,97166.41
2022-12-19T21:07:52.471Z,97167.31
2022-12-19T21:09:54.072Z,97164.75
2022-12-19T21:11:52.818Z,97159.63
2022-12-19T21:13:51.144Z,97166.53
2022-12-19T21:15:54.923Z,97166.50
2022-12-19T21:17:54.381Z,97163.06
2022-12-19T21:19:52.672Z,97165.69
2022-12-19T21:21:50.935Z,97163.13
2022-12-19T21:23:50.496Z,97157.13
2022-12-19T21:25:49.390Z,97159.72
2022-12-19T21:27:47.754Z,97158.91
2022-12-19T21:29:45.983Z,97158.91
2022-12-19T21:31:45.741Z,97159.78
2022-12-19T21:33:44.775Z,97158.09
2022-12-19T21:35:43.016Z,97163.28
2022-12-19T21:37:43.632Z,97166.75
2022-12-19T21:39:42.131Z,97154.75
2022-12-19T21:41:40.334Z,97161.69
2022-12-19T21:43:40.030Z,97163.38
2022-12-19T21:45:38.379Z,97171.19
2022-12-19T21:47:40.268Z,97160.88
2022-12-19T21:49:38.418Z,97157.41
2022-12-19T21:51:36.543Z,97153.13
2022-12-19T21:53:35.677Z,97157.44
2022-12-19T21:55:34.264Z,97155.72
2022-12-19T21:57:32.524Z,97150.59
2022-12-19T21:59:30.880Z,97158.41
2022-12-19T22:01:30.709Z,97141.25
2022-12-19T22:03:30.769Z,97150.81
2022-12-19T22:05:29.093Z,97142.16
2022-12-19T22:07:27.390Z,97146.50
2022-12-19T22:09:26.179Z,97139.63
2022-12-19T22:11:24.944Z,97134.47
2022-12-19T22:13:23.179Z,97133.63
2022-12-19T22:15:23.796Z,97129.38
2022-12-19T22:17:22.234Z,97127.66
2022-12-19T22:19:22.023Z,97123.41
2022-12-19T22:21:21.123Z,97119.97
2022-12-19T22:23:19.386Z,97122.63
2022-12-19T22:25:17.928Z,97121.78
2022-12-19T22:27:16.128Z,97124.38
2022-12-19T22:29:16.923Z,97130.41
2022-12-19T22:31:17.882Z,97127.00
2022-12-19T22:33:16.058Z,97129.66
2022-12-19T22:35:15.811Z,97134.81
2022-12-19T22:37:14.026Z,97129.69
2022-12-19T22:39:14.270Z,97133.16
2022-12-19T22:41:13.704Z,97131.44
2022-12-19T22:43:12.464Z,97138.34
2022-12-19T22:45:11.742Z,97130.59
2022-12-19T22:47:10.275Z,97124.59
2022-12-19T22:49:09.821Z,97122.03
2022-12-19T22:51:12.608Z,97125.47
2022-12-19T22:53:12.868Z,97134.94
2022-12-19T22:55:13.888Z,97123.78
2022-12-19T22:57:12.584Z,97132.47
2022-12-19T22:59:13.180Z,97133.34
2022-12-19T23:01:15.905Z,97128.22
2022-12-19T23:03:14.265Z,97125.66
2022-12-19T23:05:12.713Z,97110.22
2022-12-19T23:07:12.435Z,97115.41
2022-12-19T23:09:14.676Z,97112.84
2022-12-19T23:11:17.208Z,97109.41
2022-12-19T23:13:15.569Z,97120.66
2022-12-19T23:15:13.832Z,97111.22
2022-12-19T23:17:11.960Z,97114.69
2022-12-19T23:19:11.203Z,97118.16
2022-12-19T23:21:12.600Z,97113.84
2022-12-19T23:23:12.431Z,97117.25
2022-12-19T23:25:11.956Z,97107.84
2022-12-19T23:27:10.209Z,97112.16
2022-12-19T23:29:10.425Z,97112.16
2022-12-19T23:31:11.433Z,97113.88
2022-12-19T23:33:09.763Z,97119.06
2022-12-19T23:35:08.477Z,97125.94
2022-12-19T23:37:11.501Z,97122.47
2022-12-19T23:39:12.881Z,97114.75
2022-12-19T23:41:14.123Z,97116.50
2022-12-19T23:43:12.557Z,97107.91
2022-12-19T23:45:12.009Z,97121.63
2022-12-19T23:47:10.299Z,97121.66
2022-12-19T23:49:08.453Z,97113.09
2022-12-19T23:51:09.526Z,97110.47
2022-12-19T23:53:08.112Z,97110.44
2022-12-19T23:55:09.704Z,97109.59
2022-12-19T23:57:07.943Z,97101.00
2022-12-19T23:59:06.305Z,97103.56
